Time;durP1;ratioP1;P1;durP2;ratioP2;P2;SDS_P1;SDS_P2;PMS_P1;PMS_P2;Temp;Humidity;BMP_temperature;BMP_pressure;BME280_temperature;BME280_humidity;BME280_pressure;Samples;Min_cycle;Max_cycle;Signal;HPM_P1;HPM_P2
2021/06/28 00:02:18;;;;;;;;;;;16.00;99.90;;;15.76;88.31;101049.53;5073804;28;19935;-63
2021/06/28 00:04:46;;;;;;;;;;;16.00;99.90;;;15.70;88.42;101043.44;5073759;28;19947;-63
2021/06/28 00:07:16;;;;;;;;;;;15.90;99.90;;;15.67;88.32;101046.78;5074098;28;20332;-63
2021/06/28 00:09:44;;;;;;;;;;;15.90;99.90;;;15.64;88.38;101039.25;5074380;28;19979;-64
2021/06/28 00:12:12;;;;;;;;;;;15.90;99.90;;;15.64;88.55;101046.63;5073620;28;19928;-63
2021/06/28 00:14:40;;;;;;;;;;;15.90;99.90;;;15.64;88.56;101041.97;5073676;28;19932;-63
2021/06/28 00:17:09;;;;;;;;;;;15.80;99.90;;;15.61;88.30;101048.06;5073852;28;19978;-63
2021/06/28 00:19:37;;;;;;;;;;;15.80;99.90;;;15.61;88.15;101041.81;5074123;28;19928;-63
2021/06/28 00:22:05;;;;;;;;;;;15.80;99.90;;;15.61;88.07;101047.25;5073493;28;20381;-63
2021/06/28 00:24:33;;;;;;;;;;;15.80;99.90;;;15.52;88.10;101035.53;5073388;28;19970;-63
2021/06/28 00:27:00;;;;;;;;;;;15.70;99.90;;;15.50;88.15;101037.78;5073171;28;19947;-63
2021/06/28 00:29:28;;;;;;;;;;;15.70;99.90;;;15.47;87.95;101041.09;5073812;28;19929;-63
2021/06/28 00:31:56;;;;;;;;;;;15.70;99.90;;;15.47;87.54;101038.38;5073688;28;19931;-63
2021/06/28 00:34:26;;;;;;;;;;;15.70;99.90;;;15.44;87.47;101041.75;5073098;28;19932;-63
2021/06/28 00:36:53;;;;;;;;;;;15.70;99.90;;;15.41;87.67;101034.19;5073532;28;19924;-64
2021/06/28 00:39:21;;;;;;;;;;;15.60;99.90;;;15.39;87.42;101036.41;5073507;28;19925;-63
2021/06/28 00:41:49;;;;;;;;;;;15.60;99.90;;;15.35;87.48;101024.56;5073554;28;19931;-64
2021/06/28 00:44:17;;;;;;;;;;;15.60;99.90;;;15.32;87.71;101029.50;5072648;28;19925;-63
2021/06/28 00:46:45;;;;;;;;;;;15.60;99.90;;;15.32;87.26;101028.69;5073236;28;19924;-63
2021/06/28 00:49:12;;;;;;;;;;;15.50;99.90;;;15.30;87.10;101031.75;5073444;28;19924;-63
2021/06/28 00:51:42;;;;;;;;;;;15.50;99.90;;;15.31;87.31;101022.47;5073460;28;19936;-64
2021/06/28 00:54:10;;;;;;;;;;;15.50;99.90;;;15.35;86.82;101030.00;5072411;28;20289;-63
2021/06/28 00:56:38;;;;;;;;;;;15.50;99.90;;;15.32;86.94;101029.50;5072982;28;19935;-63
2021/06/28 00:59:06;;;;;;;;;;;15.50;99.90;;;15.32;86.58;101028.69;5073322;28;19947;-64
2021/06/28 01:01:34;;;;;;;;;;;15.50;99.90;;;15.29;86.50;101024.69;5073315;28;19928;-63
2021/06/28 01:04:02;;;;;;;;;;;15.40;99.90;;;15.27;86.85;101026.94;5072275;28;19925;-63
2021/06/28 01:06:29;;;;;;;;;;;15.40;99.90;;;15.20;87.14;101025.78;5072408;28;19929;-63
2021/06/28 01:08:59;;;;;;;;;;;15.40;99.90;;;15.14;87.47;101022.41;5073008;28;19928;-63
2021/06/28 01:11:27;;;;;;;;;;;15.30;99.90;;;15.09;87.56;101027.19;5073326;28;19932;-63
2021/06/28 01:13:55;;;;;;;;;;;15.20;99.90;;;15.02;87.89;101030.34;5071956;28;20381;-63
2021/06/28 01:16:23;;;;;;;;;;;15.20;99.90;;;14.96;88.38;101025.34;5072711;28;19928;-63
2021/06/28 01:18:51;;;;;;;;;;;15.20;99.90;;;14.95;88.42;101029.22;5072569;28;19978;-64
2021/06/28 01:21:19;;;;;;;;;;;;;;;14.91;89.04;101028.22;5072981;28;19924;-63
2021/06/28 01:23:49;;;;;;;;;;;15.00;99.90;;;14.88;88.73;101029.66;5071806;28;19978;-63
2021/06/28 01:26:16;;;;;;;;;;;15.10;99.90;;;14.87;88.56;101022.59;5072604;28;19924;-63
2021/06/28 01:28:44;;;;;;;;;;;15.00;99.90;;;14.82;88.63;101021.94;5072762;28;20403;-63
2021/06/28 01:31:13;;;;;;;;;;;15.00;99.90;;;14.76;88.01;101019.38;5073079;28;19924;-63
2021/06/28 01:33:41;;;;;;;;;;;14.90;99.90;;;14.74;87.48;101020.78;5071664;28;19925;-63
2021/06/28 01:36:09;;;;;;;;;;;14.90;99.90;;;14.70;87.00;101019.81;5072252;28;19924;-63
2021/06/28 01:38:37;;;;;;;;;;;14.80;99.90;;;14.67;86.40;101012.25;5072859;28;19925;-63
2021/06/28 01:41:07;;;;;;;;;;;14.80;99.90;;;14.66;85.71;101007.94;5072723;28;19928;-63
2021/06/28 01:43:34;;;;;;;;;;;14.80;99.90;;;14.66;85.54;101011.47;5071641;28;19947;-63
2021/06/28 01:46:02;;;;;;;;;;;14.80;99.90;;;14.68;84.47;101003.00;5072004;28;19978;-63
2021/06/28 01:48:30;;;;;;;;;;;14.80;99.90;;;14.67;84.34;101007.63;5072734;28;19959;-63
2021/06/28 01:50:58;;;;;;;;;;;14.80;99.90;;;14.68;84.39;101005.72;5072580;28;19935;-63
2021/06/28 01:53:26;;;;;;;;;;;14.80;99.90;;;14.64;83.92;101007.44;5071508;28;19932;-63
2021/06/28 01:55:54;;;;;;;;;;;14.70;99.90;;;14.63;83.56;101001.19;5072150;28;19992;-63
2021/06/28 01:58:24;;;;;;;;;;;14.70;99.90;;;14.60;82.48;101001.00;5072615;28;19932;-64
2021/06/28 02:00:54;;;;;;;;;;;14.70;99.90;;;14.57;82.35;101004.34;5072256;28;20308;-64
2021/06/28 02:03:23;;;;;;;;;;;14.70;99.90;;;14.49;81.89;100999.69;5071620;28;19925;-64
2021/06/28 02:05:53;;;;;;;;;;;14.60;99.90;;;14.47;81.01;100988.31;5071746;28;19928;-64
2021/06/28 02:08:22;;;;;;;;;;;14.60;99.90;;;14.47;80.85;100993.75;5072676;28;19924;-63
2021/06/28 02:10:51;;;;;;;;;;;14.60;99.90;;;14.41;80.75;100989.56;5069625;28;20285;-64
2021/06/28 02:13:20;;;;;;;;;;;14.50;99.90;;;14.37;80.42;100983.94;5071312;28;19978;-63
2021/06/28 02:15:50;;;;;;;;;;;14.50;99.90;;;14.38;80.32;100988.22;5071805;28;19935;-63
2021/06/28 02:18:18;;;;;;;;;;;14.50;99.90;;;14.36;80.12;100985.03;5073292;28;20328;-63
2021/06/28 02:20:45;;;;;;;;;;;14.50;99.90;;;14.33;79.97;100985.66;5076161;28;19929;-64
2021/06/28 02:23:33;;;;;;;;;;;14.40;99.90;;;14.29;79.79;100975.69;5075456;28;19925;-63
2021/06/28 02:26:03;;;;;;;;;;;14.40;99.90;;;14.27;79.85;100975.97;5075622;28;19932;-64
2021/06/28 02:28:33;;;;;;;;;;;14.40;99.90;;;14.24;79.98;100987.47;5076486;28;19982;-63
2021/06/28 02:31:03;;;;;;;;;;;14.40;99.90;;;14.23;79.63;100985.88;5076327;28;20281;-63
2021/06/28 02:33:32;;;;;;;;;;;14.30;99.90;;;14.20;79.62;100981.84;5075319;28;19924;-63
2021/06/28 02:36:00;;;;;;;;;;;14.30;99.90;;;14.20;79.58;100989.19;5075427;28;20366;-63
2021/06/28 02:38:27;;;;;;;;;;;14.30;99.90;;;14.17;79.87;100992.53;5076077;28;19924;-63
2021/06/28 02:40:55;;;;;;;;;;;14.20;99.90;;;14.10;79.72;100984.81;5075990;28;19928;-63
2021/06/28 02:43:24;;;;;;;;;;;14.20;99.90;;;14.05;80.13;100976.78;5074961;28;19921;-63
2021/06/28 02:45:52;;;;;;;;;;;14.10;99.90;;;14.00;80.19;100978.81;5075235;28;19929;-63
2021/06/28 02:48:21;;;;;;;;;;;14.10;99.90;;;13.97;80.60;100982.97;5075978;28;19935;-64
2021/06/28 02:50:49;;;;;;;;;;;14.10;99.90;;;13.98;80.72;100981.06;5075777;28;19925;-63
2021/06/28 02:53:18;;;;;;;;;;;14.10;99.90;;;14.00;80.36;100979.63;5074676;28;20367;-63
2021/06/28 02:55:46;;;;;;;;;;;;;;;14.02;79.89;100979.31;5075166;28;19925;-63
2021/06/28 02:58:14;;;;;;;;;;;14.10;99.90;;;14.03;79.73;100987.19;5075687;28;19925;-63
2021/06/28 03:00:42;;;;;;;;;;;14.20;99.90;;;14.07;79.55;100981.94;5075609;28;19931;-63
2021/06/28 03:03:10;;;;;;;;;;;14.20;99.90;;;14.07;79.93;100977.28;5074147;28;20374;-64
2021/06/28 03:05:39;;;;;;;;;;;14.20;99.90;;;14.07;79.62;100988.16;5074998;28;19929;-63
2021/06/28 03:08:07;;;;;;;;;;;14.20;99.90;;;14.09;79.51;100996.00;5075572;28;20385;-63
2021/06/28 03:10:35;;;;;;;;;;;14.20;99.90;;;14.06;79.81;100980.31;5075381;28;19974;-63
2021/06/28 03:13:04;;;;;;;;;;;14.20;99.90;;;14.05;79.85;100982.22;5074548;28;19924;-63
2021/06/28 03:15:32;;;;;;;;;;;14.20;99.90;;;14.06;79.82;100981.13;5074760;28;19940;-63
2021/06/28 03:17:59;;;;;;;;;;;14.20;99.90;;;14.03;79.98;100979.03;5075318;28;19928;-63
2021/06/28 03:20:27;;;;;;;;;;;14.10;99.90;;;14.02;80.04;100982.03;5075213;28;19928;-62
2021/06/28 03:22:56;;;;;;;;;;;14.10;99.90;;;14.00;80.11;100979.63;5074397;28;19928;-63
2021/06/28 03:25:24;;;;;;;;;;;14.10;99.90;;;13.96;80.17;100980.53;5074572;28;19928;-63
2021/06/28 03:27:52;;;;;;;;;;;14.10;99.90;;;13.89;80.35;100978.25;5075294;28;19935;-63
2021/06/28 03:30:20;;;;;;;;;;;14.00;99.90;;;13.86;80.88;100987.03;5074811;28;20411;-63
2021/06/28 03:32:48;;;;;;;;;;;14.00;99.90;;;13.84;81.11;100991.16;5074112;28;20339;-63
2021/06/28 03:35:17;;;;;;;;;;;14.00;99.90;;;13.82;80.99;100982.53;5074441;28;19931;-63
2021/06/28 03:37:44;;;;;;;;;;;;;;;13.79;81.13;100983.13;5074947;28;19935;-63
2021/06/28 03:40:16;;;;;;;;;;;13.90;99.90;;;13.75;81.25;100985.66;5075076;28;19924;-63
2021/06/28 03:42:44;;;;;;;;;;;13.90;99.90;;;13.76;81.24;100987.28;5073884;28;19931;-63
2021/06/28 03:45:13;;;;;;;;;;;13.90;99.90;;;13.75;80.48;100984.84;5074054;28;20412;-63
2021/06/28 03:47:41;;;;;;;;;;;13.90;99.90;;;13.74;80.58;100985.97;5074707;28;19924;-63
2021/06/28 03:50:11;;;;;;;;;;;13.90;99.90;;;13.77;80.48;100994.28;5074904;28;19933;-63
2021/06/28 03:52:39;;;;;;;;;;;13.90;99.90;;;13.79;80.17;100994.81;5073804;28;19928;-63
2021/06/28 03:55:08;;;;;;;;;;;13.90;99.90;;;13.78;79.81;100995.91;5073969;28;19936;-63
2021/06/28 03:57:38;;;;;;;;;;;13.90;99.90;;;13.80;79.81;100993.69;5060870;28;20389;-63
2021/06/28 04:00:11;;;;;;;;;;;13.90;99.90;;;13.78;79.61;100995.91;5054674;28;19931;-63
2021/06/28 04:02:41;;;;;;;;;;;13.90;99.90;;;13.79;79.64;100992.09;5053572;28;19925;-63
2021/06/28 04:05:11;;;;;;;;;;;13.90;99.90;;;13.75;79.60;100995.72;5053959;28;20354;-64
2021/06/28 04:07:38;;;;;;;;;;;13.90;99.90;;;13.75;79.84;100990.28;5054092;28;19924;-63
2021/06/28 04:10:07;;;;;;;;;;;13.80;99.90;;;13.72;80.27;100997.13;5054393;28;19924;-63
2021/06/28 04:12:37;;;;;;;;;;;13.80;99.90;;;13.73;80.05;100997.94;5053490;28;19925;-63
2021/06/28 04:15:09;;;;;;;;;;;13.80;99.90;;;13.73;79.85;101000.66;5053666;28;19932;-63
2021/06/28 04:17:37;;;;;;;;;;;13.80;99.90;;;13.71;80.12;101000.97;5054193;28;19924;-63
2021/06/28 04:20:05;;;;;;;;;;;;;;;13.68;80.55;100999.66;5054347;28;20386;-63
2021/06/28 04:22:33;;;;;;;;;;;13.80;99.90;;;13.68;80.50;101002.38;5053145;28;19932;-63
2021/06/28 04:25:01;;;;;;;;;;;13.80;99.90;;;13.67;80.93;101002.69;5053289;28;19925;-63
2021/06/28 04:27:29;;;;;;;;;;;13.80;99.90;;;13.68;80.40;101007.00;5054043;28;19931;-63
2021/06/28 04:29:58;;;;;;;;;;;13.80;99.90;;;13.69;80.63;101014.06;5054098;28;19924;-64
2021/06/28 04:32:25;;;;;;;;;;;13.80;99.90;;;13.71;80.70;101005.63;5053303;28;19924;-63
2021/06/28 04:34:55;;;;;;;;;;;13.80;99.90;;;13.69;81.32;101009.44;5053060;28;20016;-63
2021/06/28 04:37:22;;;;;;;;;;;13.80;99.90;;;13.73;81.24;101015.06;5053616;28;20329;-63
2021/06/28 04:39:50;;;;;;;;;;;13.80;99.90;;;13.69;81.59;101014.88;5053945;28;19925;-63
2021/06/28 04:42:18;;;;;;;;;;;13.80;99.90;;;13.69;81.61;101014.06;5052171;28;19935;-63
2021/06/28 04:44:46;;;;;;;;;;;13.80;99.90;;;13.69;81.74;101019.50;5052880;28;19928;-63
2021/06/28 04:47:15;;;;;;;;;;;13.80;99.90;;;13.67;81.82;101022.53;5053450;28;19931;-63
2021/06/28 04:49:43;;;;;;;;;;;13.80;99.90;;;13.63;82.16;101016.09;5053725;28;19929;-64
2021/06/28 04:52:10;;;;;;;;;;;13.80;99.90;;;13.62;82.74;101013.66;5052475;28;20390;-63
2021/06/28 04:54:38;;;;;;;;;;;13.80;99.90;;;13.60;82.63;101021.31;5052785;28;19966;-63
2021/06/28 04:57:07;;;;;;;;;;;13.80;99.90;;;13.59;83.48;101017.00;5053282;28;19931;-63
2021/06/28 04:59:34;;;;;;;;;;;13.70;99.90;;;13.59;83.53;101020.50;5053534;28;19933;-63
2021/06/28 05:02:03;;;;;;;;;;;13.70;99.90;;;13.60;83.48;101024.84;5052754;28;19925;-63
2021/06/28 05:04:32;;;;;;;;;;;13.80;99.90;;;13.62;83.73;101027.25;5052716;28;19925;-63
2021/06/28 05:07:00;;;;;;;;;;;13.80;99.90;;;13.64;83.84;101025.06;5053089;28;19932;-63
2021/06/28 05:09:28;;;;;;;;;;;13.80;99.90;;;13.66;83.62;101031.78;5053467;28;20294;-63
2021/06/28 05:11:55;;;;;;;;;;;13.80;99.90;;;13.65;83.94;101026.63;5053059;28;20386;-64
2021/06/28 05:14:24;;;;;;;;;;;13.80;99.90;;;13.64;83.99;101030.47;5052363;28;20329;-63
2021/06/28 05:16:52;;;;;;;;;;;13.80;99.90;;;13.66;84.11;101031.78;5052742;28;19952;-64
2021/06/28 05:19:20;;;;;;;;;;;13.80;99.90;;;13.65;84.14;101034.78;5053111;28;19973;-63
2021/06/28 05:21:49;;;;;;;;;;;13.80;99.90;;;13.68;84.28;101036.91;5052910;28;20358;-63
2021/06/28 05:24:17;;;;;;;;;;;13.80;99.90;;;13.67;83.88;101038.84;5051970;28;19932;-63
2021/06/28 05:26:45;;;;;;;;;;;13.80;99.90;;;13.69;84.15;101043.94;5052667;28;19952;-63
2021/06/28 05:29:13;;;;;;;;;;;13.80;99.90;;;13.68;84.25;101034.19;5053073;28;19931;-63
2021/06/28 05:31:41;;;;;;;;;;;13.90;99.90;;;13.73;84.52;101041.44;5052848;28;19925;-63
2021/06/28 05:34:08;;;;;;;;;;;13.90;99.90;;;13.78;84.60;101042.13;5051710;28;20364;-63
2021/06/28 05:36:36;;;;;;;;;;;13.90;99.90;;;13.83;84.38;101042.00;5052590;28;19982;-63
2021/06/28 05:39:06;;;;;;;;;;;14.00;99.90;;;14.31;83.69;101047.69;5052975;28;19925;-63
2021/06/28 05:41:34;;;;;;;;;;;14.30;99.90;;;14.94;80.56;101028.41;5052606;28;19925;-63
2021/06/28 05:44:02;;;;;;;;;;;14.90;99.90;;;15.29;78.09;101034.78;5056871;28;19932;-63
2021/06/28 05:46:30;;;;;;;;;;;15.30;99.90;;;15.61;76.24;101033.63;5072411;28;19930;-63
2021/06/28 05:48:58;;;;;;;;;;;15.60;99.90;;;15.93;74.51;101040.56;5072788;28;19935;-63
2021/06/28 05:51:25;;;;;;;;;;;15.90;99.90;;;15.97;73.78;101039.59;5072869;28;19999;-63
2021/06/28 05:53:53;;;;;;;;;;;16.10;99.90;;;15.91;73.66;101040.06;5071453;28;20335;-63
2021/06/28 05:56:22;;;;;;;;;;;16.10;99.90;;;15.94;73.63;101039.44;5072078;28;19924;-63
2021/06/28 05:58:50;;;;;;;;;;;16.00;99.90;;;16.04;73.34;101033.66;5072619;28;19924;-63
2021/06/28 06:01:18;;;;;;;;;;;16.10;99.90;;;16.80;70.90;101030.06;5072727;28;19928;-63
2021/06/28 06:03:46;;;;;;;;;;;16.40;99.90;;;18.31;66.65;101030.91;5071375;28;19928;-63
2021/06/28 06:06:14;;;;;;;;;;;17.50;99.90;;;19.63;60.87;101029.56;5072171;28;19925;-64
2021/06/28 06:08:41;;;;;;;;;;;19.00;99.90;;;20.74;56.86;101021.38;5072569;28;19924;-63
2021/06/28 06:11:09;;;;;;;;;;;20.20;99.90;;;21.64;53.48;101029.50;5072462;28;19928;-64
2021/06/28 06:13:39;;;;;;;;;;;21.20;99.90;;;22.30;51.33;101023.06;5071304;28;19929;-64
2021/06/28 06:16:07;;;;;;;;;;;22.00;99.90;;;22.92;49.85;101026.59;5071969;28;19928;-64
2021/06/28 06:18:34;;;;;;;;;;;22.70;99.90;;;23.35;48.11;101021.41;5072551;28;19931;-64
2021/06/28 06:21:02;;;;;;;;;;;23.30;99.90;;;23.80;46.98;101022.47;5072447;28;19924;-64
2021/06/28 06:23:30;;;;;;;;;;;23.90;99.90;;;24.18;45.89;101016.69;5071206;28;19924;-63
2021/06/28 06:25:58;;;;;;;;;;;24.30;99.90;;;24.58;44.63;101021.47;5071541;28;19929;-64
2021/06/28 06:28:25;;;;;;;;;;;24.80;99.90;;;25.04;43.68;101023.91;5072539;28;19924;-64
2021/06/28 06:30:55;;;;;;;;;;;25.30;99.90;;;25.23;42.84;101020.91;5072401;28;19924;-64
2021/06/28 06:33:22;;;;;;;;;;;25.60;99.90;;;25.38;42.73;101019.81;5071341;28;19932;-64
2021/06/28 06:35:50;;;;;;;;;;;25.80;99.90;;;25.29;42.69;101016.59;5071327;28;19929;-64
2021/06/28 06:38:19;;;;;;;;;;;25.90;99.90;;;25.24;42.85;101022.47;5056983;28;19944;-64
2021/06/28 06:40:48;;;;;;;;;;;25.90;99.90;;;25.17;43.01;101027.97;5052205;28;19947;-64
2021/06/28 06:43:17;;;;;;;;;;;25.90;99.90;;;25.28;42.89;101024.09;5051319;28;20432;-64
2021/06/28 06:45:45;;;;;;;;;;;26.10;99.90;;;25.39;42.47;101030.50;5051288;28;19925;-64
2021/06/28 06:48:14;;;;;;;;;;;26.30;99.90;;;25.20;42.95;101032.72;5052236;28;19929;-64
2021/06/28 06:50:42;;;;;;;;;;;26.30;99.90;;;25.19;42.96;101031.13;5051977;28;19925;-64
2021/06/28 06:53:10;;;;;;;;;;;26.50;99.90;;;25.03;43.45;101034.16;5051214;28;20420;-64
2021/06/28 06:55:38;;;;;;;;;;;26.60;99.90;;;24.85;43.59;101033.22;5051352;28;19943;-64
2021/06/28 06:58:08;;;;;;;;;;;26.70;99.90;;;24.72;44.38;101029.09;5051973;28;19924;-64
2021/06/28 07:00:37;;;;;;;;;;;26.80;99.90;;;24.62;45.14;101036.13;5052017;28;19931;-63
2021/06/28 07:03:05;;;;;;;;;;;27.10;99.90;;;24.37;44.80;101035.84;5050890;28;19932;-64
2021/06/28 07:05:34;;;;;;;;;;;27.10;99.90;;;24.10;46.12;101037.06;5053982;28;19994;-64
2021/06/28 07:08:02;;;;;;;;;;;27.10;99.90;;;23.62;47.55;101054.56;5055618;28;19932;-63
2021/06/28 07:10:30;;;;;;;;;;;26.90;99.90;;;23.12;48.68;101053.75;5055625;28;19939;-63
2021/06/28 07:12:57;;;;;;;;;;;26.50;99.90;;;22.46;50.35;101059.59;5054619;28;20413;-64
2021/06/28 07:15:25;;;;;;;;;;;25.50;99.90;;;21.88;51.50;101063.44;5054663;28;19924;-63
2021/06/28 07:17:53;;;;;;;;;;;24.30;99.90;;;21.45;53.17;101059.72;5055478;28;19952;-63
2021/06/28 07:20:23;;;;;;;;;;;23.30;99.90;;;21.11;54.36;101063.19;5055262;28;20286;-63
2021/06/28 07:22:53;;;;;;;;;;;22.60;99.90;;;20.82;55.22;101066.34;5054466;28;19928;-64
2021/06/28 07:25:21;;;;;;;;;;;22.00;99.90;;;20.54;56.53;101067.19;5054393;28;20397;-63
2021/06/28 07:27:49;;;;;;;;;;;21.40;99.90;;;20.36;57.66;101063.13;5054929;28;19925;-63
2021/06/28 07:30:20;;;;;;;;;;;21.10;99.90;;;20.16;58.26;101075.84;5055617;28;19928;-63
2021/06/28 07:32:48;;;;;;;;;;;20.90;99.90;;;20.04;59.29;101072.34;5074297;28;19931;-63
2021/06/28 07:35:16;;;;;;;;;;;20.70;99.90;;;20.14;59.30;101072.66;5074452;28;19925;-64
2021/06/28 07:37:43;;;;;;;;;;;20.70;99.90;;;20.15;60.20;101068.75;5074892;28;19925;-63
2021/06/28 07:40:16;;;;;;;;;;;20.70;99.90;;;20.30;59.18;101070.03;5074913;28;19932;-64
2021/06/28 07:42:44;;;;;;;;;;;20.80;99.90;;;20.38;59.48;101076.50;5074031;28;19928;-64
2021/06/28 07:45:13;;;;;;;;;;;20.90;99.90;;;20.17;60.30;101076.66;5073932;28;19924;-63
2021/06/28 07:47:41;;;;;;;;;;;20.80;99.90;;;20.17;60.15;101071.16;5074675;28;20290;-63
2021/06/28 07:50:10;;;;;;;;;;;20.70;99.90;;;20.26;59.08;101077.34;5074975;28;19931;-64
2021/06/28 07:52:38;;;;;;;;;;;20.80;99.90;;;20.30;59.74;101083.75;5073704;28;19955;-63
2021/06/28 07:55:08;;;;;;;;;;;20.70;99.90;;;20.54;59.71;101085.59;5073925;28;19925;-64
2021/06/28 07:57:37;;;;;;;;;;;20.90;99.90;;;20.65;57.53;101086.69;5074444;28;19924;-64
2021/06/28 08:00:07;;;;;;;;;;;21.00;99.90;;;20.80;57.60;101083.16;5074676;28;20400;-63
2021/06/28 08:02:35;;;;;;;;;;;21.20;99.90;;;20.75;58.33;101090.88;5073661;28;19924;-64
2021/06/28 08:05:03;;;;;;;;;;;21.30;99.90;;;20.61;58.24;101089.34;5073895;28;19978;-64
2021/06/28 08:07:31;;;;;;;;;;;21.20;99.90;;;20.83;58.57;101093.47;5074252;28;19964;-63
2021/06/28 08:09:58;;;;;;;;;;;21.30;99.90;;;21.05;57.22;101084.63;5074538;28;19943;-64
2021/06/28 08:12:26;;;;;;;;;;;21.50;99.90;;;21.28;56.53;101098.59;5073611;28;19925;-64
2021/06/28 08:14:56;;;;;;;;;;;21.70;99.90;;;21.32;57.76;101080.22;5073574;28;19931;-64
2021/06/28 08:17:23;;;;;;;;;;;21.80;99.90;;;21.39;55.99;101085.91;5072880;28;19929;-63
2021/06/28 08:19:51;;;;;;;;;;;21.80;99.90;;;21.50;56.76;101081.44;5074173;28;19925;-63
2021/06/28 08:22:19;;;;;;;;;;;21.90;99.90;;;21.66;56.04;101081.44;5073285;28;19929;-63
2021/06/28 08:24:47;;;;;;;;;;;22.10;99.90;;;21.70;56.47;101076.81;5073068;28;19931;-63
2021/06/28 08:27:15;;;;;;;;;;;22.10;99.90;;;21.78;55.60;101078.56;5073688;28;20016;-64
2021/06/28 08:29:44;;;;;;;;;;;22.20;99.90;;;21.76;57.05;101076.16;5074035;28;19925;-64
2021/06/28 08:32:13;;;;;;;;;;;22.30;99.90;;;21.60;57.01;101067.16;5073359;28;20005;-64
2021/06/28 08:34:41;;;;;;;;;;;22.10;99.90;;;21.50;57.19;101070.44;5073079;28;19935;-63
2021/06/28 08:37:09;;;;;;;;;;;22.10;99.90;;;21.57;57.37;101075.31;5073581;28;19928;-64
2021/06/28 08:39:37;;;;;;;;;;;22.10;99.90;;;21.63;56.92;101071.94;5073818;28;19926;-64
2021/06/28 08:42:07;;;;;;;;;;;22.10;99.90;;;21.60;56.58;101077.38;5073192;28;19931;-64
2021/06/28 08:44:36;;;;;;;;;;;22.10;99.90;;;21.67;56.99;101081.06;5073229;28;19924;-64
2021/06/28 08:47:05;;;;;;;;;;;22.10;99.90;;;21.74;56.27;101072.97;5073134;28;19932;-63
2021/06/28 08:49:34;;;;;;;;;;;22.20;99.90;;;21.70;56.19;101063.84;5073636;28;20405;-64
2021/06/28 08:52:02;;;;;;;;;;;22.20;99.90;;;21.56;56.39;101069.03;5072951;28;19924;-64
2021/06/28 08:54:30;;;;;;;;;;;22.10;99.90;;;21.44;57.61;101065.56;5072902;28;19931;-64
2021/06/28 08:56:58;;;;;;;;;;;21.90;99.90;;;21.45;57.29;101064.44;5072944;28;19929;-63
2021/06/28 08:59:26;;;;;;;;;;;21.90;99.90;;;21.52;56.75;101059.09;5073316;28;19931;-64
2021/06/28 09:01:54;;;;;;;;;;;22.00;99.90;;;21.48;55.92;101064.50;5073111;28;19932;-64
2021/06/28 09:04:24;;;;;;;;;;;22.00;99.90;;;21.32;56.14;101063.72;5072516;28;19924;-64
2021/06/28 09:06:53;;;;;;;;;;;21.90;99.90;;;21.42;56.48;101056.88;5072875;28;20328;-64
2021/06/28 09:09:22;;;;;;;;;;;21.90;99.90;;;21.34;56.25;101060.63;5073230;28;19932;-63
2021/06/28 09:11:52;;;;;;;;;;;21.80;99.90;;;21.45;56.47;101058.91;5072920;28;19924;-64
2021/06/28 09:14:24;;;;;;;;;;;21.90;99.90;;;21.70;56.07;101060.31;5071999;28;19924;-64
2021/06/28 09:16:52;;;;;;;;;;;22.10;99.90;;;21.70;55.08;101055.56;5072634;28;19928;-64
2021/06/28 09:19:22;;;;;;;;;;;22.10;99.90;;;21.55;55.65;101058.38;5072783;28;19924;-63
2021/06/28 09:21:55;;;;;;;;;;;22.00;99.90;;;21.41;55.42;101056.09;5073128;28;19978;-63
2021/06/28 09:24:29;;;;;;;;;;;21.90;99.90;;;21.41;56.19;101063.53;5072268;28;19924;-64
2021/06/28 09:26:58;;;;;;;;;;;21.90;99.90;;;21.46;55.11;101060.53;5072386;28;19924;-65
2021/06/28 09:29:36;;;;;;;;;;;21.90;99.90;;;21.46;55.07;101064.06;5072879;28;19952;-64
2021/06/28 09:32:11;;;;;;;;;;;21.90;99.90;;;21.49;56.27;101070.81;5072314;28;19940;-63
2021/06/28 09:34:39;;;;;;;;;;;21.90;99.90;;;21.55;55.91;101064.66;5072047;28;19935;-64
2021/06/28 09:37:12;;;;;;;;;;;22.00;99.90;;;21.58;55.37;101063.94;5072363;28;19939;-64
2021/06/28 09:39:42;;;;;;;;;;;22.00;99.90;;;21.59;54.67;101065.56;5072884;28;19928;-64
2021/06/28 09:42:13;;;;;;;;;;;22.00;99.90;;;21.47;55.03;101067.59;5072057;28;19982;-63
2021/06/28 09:44:42;;;;;;;;;;;22.00;99.90;;;21.59;55.68;101075.75;5071781;28;19932;-64
2021/06/28 09:47:13;;;;;;;;;;;22.00;99.90;;;21.60;55.20;101069.09;5072298;28;19932;-64
2021/06/28 09:49:59;;;;;;;;;;;22.10;99.90;;;21.63;55.81;101073.91;5072608;28;19947;-64
2021/06/28 09:52:33;;;;;;;;;;;22.10;99.90;;;21.54;56.19;101063.09;5072103;28;19925;-64
2021/06/28 09:55:19;;;;;;;;;;;22.00;99.90;;;21.39;55.62;101063.91;5072037;28;19932;-64
2021/06/28 09:58:06;;;;;;;;;;;21.90;99.90;;;21.33;56.02;101073.59;5072262;28;20454;-64
2021/06/28 10:00:35;;;;;;;;;;;21.80;99.90;;;21.27;56.91;101082.44;5072618;28;19924;-63
2021/06/28 10:03:04;;;;;;;;;;;21.70;99.90;;;21.34;55.96;101072.41;5071478;28;19925;-63
2021/06/28 10:05:35;;;;;;;;;;;21.80;99.90;;;21.32;56.12;101071.16;5071814;28;20305;-63
2021/06/28 10:08:15;;;;;;;;;;;21.80;99.90;;;21.31;55.77;101078.63;5072455;28;19928;-64
2021/06/28 10:10:43;;;;;;;;;;;21.70;99.90;;;21.24;55.73;101072.97;5072305;28;19924;-64
2021/06/28 10:13:11;;;;;;;;;;;21.70;99.90;;;21.21;56.18;101079.19;5071494;28;19986;-64
2021/06/28 10:15:41;;;;;;;;;;;21.60;99.90;;;21.23;56.32;101083.16;5071617;28;19936;-64
2021/06/28 10:18:10;;;;;;;;;;;21.70;99.90;;;21.34;55.67;101090.88;5072357;28;19986;-63
2021/06/28 10:20:40;;;;;;;;;;;21.80;99.90;;;21.36;54.84;101088.56;5072287;28;19936;-64
2021/06/28 10:23:10;;;;;;;;;;;21.80;99.90;;;21.30;54.25;101084.50;5071216;28;19928;-64
2021/06/28 10:25:39;;;;;;;;;;;21.80;99.90;;;21.14;55.18;101092.72;5071734;28;19940;-64
2021/06/28 10:28:07;;;;;;;;;;;21.60;99.90;;;21.20;55.72;101100.38;5072241;28;19924;-64
2021/06/28 10:30:35;;;;;;;;;;;21.60;99.90;;;21.28;55.24;101095.06;5072308;28;20404;-64
2021/06/28 10:33:07;;;;;;;;;;;21.70;99.90;;;21.22;54.99;101100.81;5071301;28;19929;-64
2021/06/28 10:35:37;;;;;;;;;;;21.70;99.90;;;21.25;56.81;101094.59;5071713;28;19932;-64
2021/06/28 10:38:08;;;;;;;;;;;21.70;99.90;;;21.40;55.99;101100.47;5072409;28;19935;-64
2021/06/28 10:41:01;;;;;;;;;;;21.80;99.90;;;21.38;56.24;101094.50;5075158;28;20545;-64
2021/06/28 10:43:33;;;;;;;;;;;21.80;99.90;;;21.36;57.49;101105.06;5060344;28;20343;-64
2021/06/28 10:46:02;;;;;;;;;;;21.80;99.90;;;21.33;57.23;101101.09;5075243;28;19924;-64
2021/06/28 10:48:31;;;;;;;;;;;21.80;99.90;;;21.25;57.10;101115.78;5075833;28;19935;-64
2021/06/28 10:51:02;;;;;;;;;;;21.70;99.90;;;21.29;57.27;101111.19;5075904;28;20369;-63
2021/06/28 10:54:10;;;;;;;;;;;21.70;99.90;;;21.21;56.74;101106.69;5074796;28;19924;-64
2021/06/28 10:56:57;;;;;;;;;;;21.70;99.90;;;21.10;56.19;101102.84;5075505;28;20067;-63
2021/06/28 10:59:42;;;;;;;;;;;21.60;99.90;;;21.08;57.10;101102.38;5075869;28;20019;-63
2021/06/28 11:02:12;;;;;;;;;;;21.50;99.90;;;21.28;57.29;101106.06;5074899;28;20031;-63
2021/06/28 11:04:41;;;;;;;;;;;21.70;99.90;;;21.33;56.36;101100.28;5063806;28;19925;-63
2021/06/28 11:07:15;;;;;;;;;;;21.70;99.90;;;21.30;54.94;101088.03;5055499;28;19929;-63
2021/06/28 11:09:46;;;;;;;;;;;21.80;99.90;;;21.16;56.41;101093.16;5055419;28;19929;-63
2021/06/28 11:12:31;;;;;;;;;;;21.60;99.90;;;21.08;55.85;101089.47;5054842;28;20396;-63
2021/06/28 11:15:01;;;;;;;;;;;21.60;99.90;;;20.95;56.30;101087.09;5053258;28;19925;-63
2021/06/28 11:17:49;;;;;;;;;;;21.40;99.90;;;20.82;57.77;101086.38;5055187;28;20436;-63
2021/06/28 11:20:42;;;;;;;;;;;21.30;99.90;;;20.94;57.69;101086.31;5055386;28;19979;-63